Time;durP1;ratioP1;P1;durP2;ratioP2;P2;SDS_P1;SDS_P2;PMS_P1;PMS_P2;Temp;Humidity;BMP_temperature;BMP_pressure;BME280_temperature;BME280_humidity;BME280_pressure;Samples;Min_cycle;Max_cycle;Signal;HPM_P1;HPM_P2
2023/07/25 00:00:35;;;;;;;13.10;2.92;;;17.00;99.90;;;;;;5053516;28;20163;-47
2023/07/25 00:03:00;;;;;;;4.10;2.55;;;16.90;99.90;;;;;;5054774;28;20228;-47
2023/07/25 00:05:26;;;;;;;7.72;2.55;;;16.80;99.90;;;;;;5054668;28;20591;-47
2023/07/25 00:07:52;;;;;;;9.05;2.78;;;16.80;99.90;;;;;;5054506;28;20178;-47
2023/07/25 00:10:18;;;;;;;5.72;2.78;;;16.80;99.90;;;;;;5054141;28;20540;-48
2023/07/25 00:12:44;;;;;;;12.20;2.30;;;16.80;99.90;;;;;;5054515;28;20697;-48
2023/07/25 00:15:10;;;;;;;9.60;2.42;;;16.70;99.90;;;;;;5054721;28;20236;-47
2023/07/25 00:17:35;;;;;;;11.30;2.67;;;16.70;99.90;;;;;;5054447;28;20626;-48
2023/07/25 00:20:01;;;;;;;12.00;3.22;;;16.80;99.90;;;;;;5053044;28;20254;-47
2023/07/25 00:22:27;;;;;;;7.20;3.00;;;16.80;99.90;;;;;;5054407;28;20175;-47
2023/07/25 00:24:52;;;;;;;10.02;2.78;;;16.70;99.90;;;;;;5054290;28;20171;-47
2023/07/25 00:27:18;;;;;;;8.13;2.67;;;16.70;99.90;;;;;;5053021;28;20216;-47
2023/07/25 00:29:43;;;;;;;7.47;2.80;;;16.70;99.90;;;;;;5054621;28;20171;-48
2023/07/25 00:32:09;;;;;;;6.88;3.00;;;16.60;99.90;;;;;;5054044;28;20210;-47
2023/07/25 00:34:34;;;;;;;8.68;3.35;;;16.60;99.90;;;;;;5053932;28;20231;-48
2023/07/25 00:37:00;;;;;;;8.07;2.63;;;16.60;99.90;;;;;;5052746;28;20256;-48
2023/07/25 00:39:25;;;;;;;13.13;2.97;;;16.60;99.90;;;;;;5053830;28;20170;-47
2023/07/25 00:41:51;;;;;;;8.18;3.03;;;16.60;99.90;;;;;;5053726;28;20167;-47
2023/07/25 00:44:16;;;;;;;11.43;2.83;;;16.60;99.90;;;;;;5054482;28;20171;-48
2023/07/25 00:46:42;;;;;;;7.85;3.05;;;16.60;99.90;;;;;;5053899;28;20252;-48
2023/07/25 00:49:08;;;;;;;7.20;2.80;;;16.50;99.90;;;;;;5053810;28;20182;-47
2023/07/25 00:51:34;;;;;;;8.88;2.20;;;16.50;99.90;;;;;;5053808;28;20173;-47
2023/07/25 00:54:00;;;;;;;10.82;2.90;;;16.50;99.90;;;;;;5054073;28;20506;-47
2023/07/25 00:56:26;;;;;;;6.10;2.42;;;16.50;99.90;;;;;;5053855;28;20166;-47
2023/07/25 00:58:52;;;;;;;5.43;2.92;;;16.40;99.90;;;;;;5053704;28;20166;-48
2023/07/25 01:01:18;;;;;;;8.02;2.70;;;16.50;99.90;;;;;;5053673;28;20185;-47
2023/07/25 01:03:43;;;;;;;7.47;3.10;;;16.50;99.90;;;;;;5053200;28;20223;-47
2023/07/25 01:06:14;;;;;;;11.85;3.15;;;16.50;99.90;;;;;;5051975;28;20166;-47
2023/07/25 01:08:56;;;;;;;7.78;3.17;;;16.40;99.90;;;;;;5053523;28;20166;-47
2023/07/25 01:11:23;;;;;;;8.00;2.92;;;16.40;99.90;;;;;;5053132;28;20210;-47
2023/07/25 01:13:49;;;;;;;5.50;2.30;;;16.30;99.90;;;;;;5053482;28;20694;-47
2023/07/25 01:16:17;;;;;;;7.28;2.53;;;16.40;99.90;;;;;;5053772;28;20220;-48
2023/07/25 01:18:44;;;;;;;7.90;2.88;;;16.40;99.90;;;;;;5053733;28;20166;-48
2023/07/25 01:21:11;;;;;;;8.82;2.83;;;16.40;99.90;;;;;;5053324;28;20163;-47
2023/07/25 01:23:38;;;;;;;6.82;3.10;;;16.30;99.90;;;;;;5053122;28;20285;-50
2023/07/25 01:26:03;;;;;;;10.73;3.60;;;16.40;99.90;;;;;;5053189;28;20258;-48
2023/07/25 01:28:30;;;;;;;15.70;3.17;;;16.40;99.90;;;;;;5053260;28;20242;-47
2023/07/25 01:30:56;;;;;;;10.43;2.92;;;16.40;99.90;;;;;;5053200;28;20221;-50
2023/07/25 01:33:22;;;;;;;12.82;3.03;;;16.30;99.90;;;;;;5051452;28;20237;-50
2023/07/25 01:35:48;;;;;;;13.32;3.60;;;16.40;99.90;;;;;;5053029;28;20207;-48
2023/07/25 01:38:14;;;;;;;16.45;3.22;;;16.30;99.90;;;;;;5053393;28;20201;-48
2023/07/25 01:40:40;;;;;;;7.25;3.25;;;16.60;99.90;;;;;;5052613;28;20167;-49
2023/07/25 01:43:06;;;;;;;13.13;3.67;;;16.40;99.90;;;;;;5053067;28;20644;-50
2023/07/25 01:45:31;;;;;;;13.43;4.05;;;16.30;99.90;;;;;;5051519;28;20635;-48
2023/07/25 01:47:59;;;;;;;9.35;3.65;;;16.30;99.90;;;;;;5052776;28;20187;-48
2023/07/25 01:50:25;;;;;;;12.98;4.07;;;16.20;99.90;;;;;;5053192;28;20584;-47
2023/07/25 01:52:51;;;;;;;13.82;3.70;;;16.30;99.90;;;;;;5052597;28;20202;-47
2023/07/25 01:55:16;;;;;;;15.50;3.60;;;16.30;99.90;;;;;;5053035;28;20532;-47
2023/07/25 01:57:42;;;;;;;16.45;4.55;;;16.60;99.90;;;;;;5051887;28;20167;-47
2023/07/25 02:00:08;;;;;;;11.23;4.10;;;16.10;99.90;;;;;;5052494;28;20171;-47
2023/07/25 02:02:34;;;;;;;9.68;3.67;;;16.10;99.90;;;;;;5052203;28;20526;-47
2023/07/25 02:04:59;;;;;;;12.48;4.28;;;15.90;99.90;;;;;;5052121;28;20171;-47
2023/07/25 02:07:25;;;;;;;12.98;4.50;;;15.90;99.90;;;;;;5052368;28;20171;-47
2023/07/25 02:09:50;;;;;;;9.25;3.97;;;16.00;99.90;;;;;;5052294;28;20213;-47
2023/07/25 02:12:16;;;;;;;14.05;4.47;;;15.80;99.90;;;;;;5052455;28;20649;-48
2023/07/25 02:14:41;;;;;;;12.90;3.78;;;15.80;99.90;;;;;;5052359;28;20201;-48
2023/07/25 02:17:07;;;;;;;9.35;3.58;;;15.80;99.90;;;;;;5051605;28;20627;-47
2023/07/25 02:19:32;;;;;;;12.63;3.63;;;15.70;99.90;;;;;;5052200;28;20170;-47
2023/07/25 02:21:58;;;;;;;17.23;4.93;;;15.70;99.90;;;;;;5051222;28;20175;-47
2023/07/25 02:24:23;;;;;;;13.82;4.05;;;15.70;99.90;;;;;;5052180;28;20170;-47
2023/07/25 02:26:49;;;;;;;15.65;4.20;;;15.80;99.90;;;;;;5052023;28;20658;-46
2023/07/25 02:29:14;;;;;;;12.80;4.07;;;15.80;99.90;;;;;;5052511;28;20159;-47
2023/07/25 02:31:40;;;;;;;12.18;3.75;;;15.80;99.90;;;;;;5051620;28;20201;-47
2023/07/25 02:34:06;;;;;;;16.35;4.53;;;15.70;99.90;;;;;;5051916;28;20213;-47
2023/07/25 02:36:31;;;;;;;10.57;4.18;;;15.70;99.90;;;;;;5051991;28;20189;-50
2023/07/25 02:38:57;;;;;;;10.68;4.22;;;15.60;99.90;;;;;;5051903;28;20633;-50
2023/07/25 02:41:22;;;;;;;8.18;3.10;;;15.60;99.90;;;;;;5051610;28;20650;-49
2023/07/25 02:43:48;;;;;;;10.75;3.92;;;15.70;99.90;;;;;;5051774;28;20660;-47
2023/07/25 02:46:13;;;;;;;17.40;4.85;;;15.70;99.90;;;;;;5052188;28;20163;-47
2023/07/25 02:48:39;;;;;;;18.00;3.97;;;15.70;99.90;;;;;;5051663;28;20181;-47
2023/07/25 02:51:04;;;;;;;17.77;4.85;;;15.70;99.90;;;;;;5051615;28;20167;-47
2023/07/25 02:53:30;;;;;;;17.92;3.70;;;15.80;99.90;;;;;;5051540;28;20206;-47
2023/07/25 02:55:55;;;;;;;10.85;4.05;;;15.70;99.90;;;;;;5051646;28;20586;-47
2023/07/25 02:58:21;;;;;;;9.15;3.78;;;15.80;99.90;;;;;;5050289;28;20234;-47
2023/07/25 03:00:48;;;;;;;8.63;3.42;;;15.80;99.90;;;;;;5051783;28;20525;-47
2023/07/25 03:03:13;;;;;;;13.52;3.45;;;15.80;99.90;;;;;;5051896;28;20254;-47
2023/07/25 03:05:39;;;;;;;10.07;3.47;;;15.80;99.90;;;;;;5051466;28;20202;-47
2023/07/25 03:08:05;;;;;;;12.05;4.28;;;15.80;99.90;;;;;;5051486;28;20510;-49
2023/07/25 03:10:31;;;;;;;10.90;3.58;;;15.90;99.90;;;;;;5051437;28;20253;-48
2023/07/25 03:12:57;;;;;;;8.02;3.42;;;15.80;99.90;;;;;;5051089;28;20723;-48
2023/07/25 03:15:23;;;;;;;7.82;3.20;;;15.90;99.90;;;;;;5051349;28;20178;-51
2023/07/25 03:17:48;;;;;;;9.23;3.60;;;15.80;99.90;;;;;;5051298;28;20194;-49
2023/07/25 03:20:14;;;;;;;13.23;4.15;;;15.90;99.90;;;;;;5051685;28;20623;-48
2023/07/25 03:22:39;;;;;;;10.73;3.53;;;15.90;99.90;;;;;;5051517;28;20174;-50
2023/07/25 03:25:05;;;;;;;11.45;3.35;;;15.90;99.90;;;;;;5051027;28;20372;-47
2023/07/25 03:27:31;;;;;;;6.25;3.33;;;15.80;99.90;;;;;;5051042;28;20183;-48
2023/07/25 03:29:56;;;;;;;10.32;3.70;;;15.80;99.90;;;;;;5055294;28;20208;-47
2023/07/25 03:32:22;;;;;;;9.80;4.00;;;15.80;99.90;;;;;;5055206;28;20297;-49
2023/07/25 03:34:47;;;;;;;9.30;3.85;;;15.80;99.90;;;;;;5055284;28;20163;-47
2023/07/25 03:37:13;;;;;;;14.52;3.78;;;15.80;99.90;;;;;;5055873;28;20172;-49
2023/07/25 03:39:38;;;;;;;9.60;4.18;;;15.90;99.90;;;;;;5055162;28;20170;-49
2023/07/25 03:42:04;;;;;;;6.93;3.38;;;15.80;99.90;;;;;;5055171;28;20170;-47
2023/07/25 03:44:30;;;;;;;14.55;4.03;;;15.70;99.90;;;;;;5055143;28;20167;-48
2023/07/25 03:46:56;;;;;;;12.30;4.22;;;15.80;99.90;;;;;;5055054;28;20171;-48
2023/07/25 03:49:21;;;;;;;10.93;4.25;;;15.70;99.90;;;;;;5055007;28;20175;-49
2023/07/25 03:51:47;;;;;;;10.60;3.80;;;15.70;99.90;;;;;;5054979;28;20199;-47
2023/07/25 03:54:12;;;;;;;11.25;4.60;;;15.60;99.90;;;;;;5055038;28;20617;-50
2023/07/25 03:56:38;;;;;;;13.07;4.35;;;15.60;99.90;;;;;;5054904;28;20181;-50
2023/07/25 03:59:03;;;;;;;8.93;4.00;;;15.60;99.90;;;;;;5054834;28;20174;-50
2023/07/25 04:01:30;;;;;;;17.30;6.05;;;15.60;99.90;;;;;;5055023;28;20171;-48
2023/07/25 04:03:55;;;;;;;11.90;4.75;;;15.70;99.90;;;;;;5054715;28;20167;-51
2023/07/25 04:06:21;;;;;;;13.63;4.53;;;15.60;99.90;;;;;;5054673;28;20166;-49
2023/07/25 04:08:47;;;;;;;16.38;4.18;;;15.50;99.90;;;;;;5054893;28;20170;-48
2023/07/25 04:11:13;;;;;;;12.98;4.57;;;15.50;99.90;;;;;;5054791;28;20226;-49
2023/07/25 04:13:39;;;;;;;15.25;4.53;;;15.50;99.90;;;;;;5054369;28;20293;-50
2023/07/25 04:16:04;;;;;;;15.82;4.13;;;15.50;99.90;;;;;;5054042;28;20258;-49
2023/07/25 04:18:30;;;;;;;14.13;4.18;;;15.40;99.90;;;;;;5054470;28;20630;-47
2023/07/25 04:20:56;;;;;;;12.00;5.30;;;15.40;99.90;;;;;;5054382;28;20171;-48
2023/07/25 04:23:22;;;;;;;23.33;4.75;;;15.40;99.90;;;;;;5054418;28;20642;-48
2023/07/25 04:25:48;;;;;;;10.00;4.60;;;15.30;99.90;;;;;;5054600;28;20167;-48
2023/07/25 04:28:13;;;;;;;11.63;5.25;;;15.30;99.90;;;;;;5054752;28;20216;-48
2023/07/25 04:30:39;;;;;;;10.02;4.53;;;15.40;99.90;;;;;;5054132;28;20707;-49
2023/07/25 04:33:05;;;;;;;10.02;4.97;;;15.40;99.90;;;;;;5054278;28;20206;-49
2023/07/25 04:35:31;;;;;;;13.80;5.07;;;15.50;99.90;;;;;;5053364;28;20182;-49
2023/07/25 04:37:56;;;;;;;16.35;5.05;;;15.50;99.90;;;;;;5054101;28;20178;-46
2023/07/25 04:40:22;;;;;;;11.45;4.63;;;15.60;99.90;;;;;;5053179;28;20167;-47
2023/07/25 04:42:47;;;;;;;9.38;4.50;;;15.60;99.90;;;;;;5054160;28;20175;-50
2023/07/25 04:45:13;;;;;;;8.23;4.80;;;15.70;99.90;;;;;;5054339;28;20194;-47
2023/07/25 04:47:38;;;;;;;9.13;4.63;;;15.70;99.90;;;;;;5053925;28;20672;-47
2023/07/25 04:50:04;;;;;;;9.98;4.30;;;15.80;99.90;;;;;;5054184;28;20229;-47
2023/07/25 04:52:30;;;;;;;14.60;4.65;;;15.90;99.90;;;;;;5054061;28;20218;-49
2023/07/25 04:54:57;;;;;;;9.23;4.10;;;16.00;99.90;;;;;;5053535;28;20162;-46
2023/07/25 04:57:26;;;;;;;10.05;4.68;;;16.10;99.90;;;;;;5053707;28;20281;-48
2023/07/25 04:59:52;;;;;;;9.90;4.38;;;16.20;99.90;;;;;;5053653;28;20254;-47
2023/07/25 05:02:21;;;;;;;7.70;4.20;;;16.30;99.90;;;;;;5053736;28;20249;-47
2023/07/25 05:04:47;;;;;;;7.88;3.35;;;16.30;99.90;;;;;;5053536;28;20158;-47
2023/07/25 05:07:14;;;;;;;12.40;3.78;;;16.40;99.90;;;;;;5053906;28;20253;-47
2023/07/25 05:09:39;;;;;;;9.10;3.67;;;16.50;99.90;;;;;;5053406;28;20194;-48
2023/07/25 05:12:06;;;;;;;5.63;3.38;;;16.60;99.90;;;;;;5053286;28;20686;-48
2023/07/25 05:14:32;;;;;;;12.90;4.05;;;16.60;99.90;;;;;;5053529;28;20233;-48
2023/07/25 05:16:57;;;;;;;7.10;3.22;;;16.80;99.90;;;;;;5053372;28;20655;-48
2023/07/25 05:19:24;;;;;;;6.55;3.50;;;16.90;99.90;;;;;;5053296;28;20528;-48
2023/07/25 05:21:49;;;;;;;9.60;3.40;;;17.00;99.90;;;;;;5053066;28;20545;-47
2023/07/25 05:24:15;;;;;;;8.00;3.03;;;16.80;99.90;;;;;;5053678;28;20167;-48
2023/07/25 05:26:41;;;;;;;9.68;3.58;;;16.90;99.90;;;;;;5053222;28;20159;-48
2023/07/25 05:29:07;;;;;;;9.98;3.65;;;16.90;99.90;;;;;;5053095;28;20695;-48
2023/07/25 05:31:33;;;;;;;6.57;3.22;;;16.90;99.90;;;;;;5053047;28;20198;-47
2023/07/25 05:33:58;;;;;;;10.32;3.90;;;16.70;99.90;;;;;;5052876;28;20190;-47
2023/07/25 05:36:24;;;;;;;7.43;3.35;;;16.70;99.90;;;;;;5053107;28;20187;-47
2023/07/25 05:38:50;;;;;;;8.40;3.95;;;16.70;99.90;;;;;;5052959;28;20174;-48
2023/07/25 05:41:15;;;;;;;9.98;4.28;;;16.70;99.90;;;;;;5052032;28;20167;-47
2023/07/25 05:43:41;;;;;;;5.28;3.90;;;16.70;99.90;;;;;;5052841;28;20171;-48
2023/07/25 05:46:07;;;;;;;9.70;4.18;;;16.60;99.90;;;;;;5052850;28;20166;-47
2023/07/25 05:48:33;;;;;;;8.32;4.43;;;16.70;99.90;;;;;;5053035;28;20258;-47
2023/07/25 05:50:58;;;;;;;7.13;4.13;;;16.70;99.90;;;;;;5051762;28;20658;-48
2023/07/25 05:53:24;;;;;;;14.73;4.63;;;16.70;99.90;;;;;;5051946;28;20297;-47
2023/07/25 05:55:49;;;;;;;10.13;4.32;;;16.80;99.90;;;;;;5052699;28;20178;-46
2023/07/25 05:58:16;;;;;;;6.97;4.03;;;16.80;99.90;;;;;;5052827;28;20183;-47
2023/07/25 06:00:43;;;;;;;7.68;4.50;;;20.20;99.90;;;;;;5052983;28;20170;-47
2023/07/25 06:03:11;;;;;;;7.45;4.07;;;17.00;99.90;;;;;;5052427;28;20510;-47
2023/07/25 06:05:37;;;;;;;9.57;4.60;;;17.00;99.90;;;;;;5051292;28;20180;-47
2023/07/25 06:08:02;;;;;;;8.80;4.60;;;17.00;99.90;;;;;;5052474;28;20179;-47
2023/07/25 06:10:28;;;;;;;7.68;3.88;;;16.90;99.90;;;;;;5052555;28;20171;-47
2023/07/25 06:12:53;;;;;;;9.57;4.18;;;17.10;99.90;;;;;;5052092;28;20226;-47
2023/07/25 06:15:19;;;;;;;8.60;4.38;;;17.10;99.90;;;;;;5052313;28;20171;-49
2023/07/25 06:17:44;;;;;;;10.68;4.30;;;17.20;99.90;;;;;;5052648;28;20182;-50
2023/07/25 06:20:12;;;;;;;9.07;4.65;;;17.30;99.90;;;;;;5052236;28;20167;-51
2023/07/25 06:22:37;;;;;;;7.65;4.00;;;17.30;99.90;;;;;;5052107;28;20174;-49
2023/07/25 06:25:05;;;;;;;11.52;4.53;;;17.50;99.90;;;;;;5052055;28;20175;-47
2023/07/25 06:27:31;;;;;;;10.20;4.50;;;17.70;99.90;;;;;;5052340;28;20167;-50
2023/07/25 06:29:56;;;;;;;12.15;4.95;;;17.70;99.90;;;;;;5051137;28;20185;-50
2023/07/25 06:32:22;;;;;;;14.95;4.78;;;17.70;99.90;;;;;;5051937;28;20701;-48
2023/07/25 06:34:48;;;;;;;11.13;4.32;;;17.60;99.90;;;;;;5051862;28;20254;-49
2023/07/25 06:37:14;;;;;;;7.55;4.10;;;17.50;99.90;;;;;;5051060;28;20194;-50
2023/07/25 06:39:39;;;;;;;11.60;4.20;;;17.60;99.90;;;;;;5051840;28;20257;-49
2023/07/25 06:42:06;;;;;;;9.50;4.40;;;17.40;99.90;;;;;;5052010;28;20159;-49
2023/07/25 06:44:31;;;;;;;10.25;4.63;;;17.40;99.90;;;;;;5051886;28;20300;-48
2023/07/25 06:46:57;;;;;;;9.77;3.85;;;17.30;99.90;;;;;;5051683;28;20253;-50
2023/07/25 06:49:22;;;;;;;9.80;5.20;;;17.20;99.90;;;;;;5051681;28;20295;-49
2023/07/25 06:51:48;;;;;;;6.90;4.18;;;17.30;99.90;;;;;;5051621;28;20672;-51
2023/07/25 06:54:14;;;;;;;12.20;4.72;;;17.40;99.90;;;;;;5051960;28;20182;-47
2023/07/25 06:56:40;;;;;;;11.13;4.50;;;17.40;99.90;;;;;;5051593;28;20202;-51
2023/07/25 06:59:05;;;;;;;8.75;3.97;;;17.50;99.90;;;;;;5051265;28;20185;-50
2023/07/25 07:01:31;;;;;;;9.20;4.07;;;17.70;99.90;;;;;;5051425;28;20618;-50
2023/07/25 07:03:56;;;;;;;8.63;4.05;;;18.00;99.90;;;;;;5050982;28;20197;-48
2023/07/25 07:06:22;;;;;;;12.25;4.00;;;18.10;99.90;;;;;;5051695;28;20185;-50
2023/07/25 07:08:48;;;;;;;10.23;4.47;;;18.00;99.90;;;;;;5051362;28;20190;-49
2023/07/25 07:11:13;;;;;;;15.18;5.35;;;18.30;99.90;;;;;;5051653;28;20214;-49
2023/07/25 07:13:40;;;;;;;5.72;4.35;;;18.50;99.90;;;;;;5051164;28;20226;-50
2023/07/25 07:16:06;;;;;;;17.42;7.05;;;18.90;99.90;;;;;;5051285;28;20181;-49
2023/07/25 07:18:32;;;;;;;12.27;6.15;;;18.90;99.90;;;;;;5051118;28;20174;-48
2023/07/25 07:20:57;;;;;;;14.80;7.13;;;18.90;99.90;;;;;;5051329;28;20178;-49
2023/07/25 07:23:23;;;;;;;15.07;6.70;;;18.80;99.90;;;;;;5051318;28;20174;-50
2023/07/25 07:25:50;;;;;;;13.35;7.47;;;18.90;99.90;;;;;;5049990;28;20178;-49
2023/07/25 07:28:16;;;;;;;18.25;6.93;;;18.80;99.90;;;;;;5051061;28;20661;-47
2023/07/25 07:30:47;;;;;;;12.40;5.85;;;18.70;99.90;;;;;;5050317;28;20182;-49
2023/07/25 07:33:12;;;;;;;17.33;5.82;;;18.80;99.90;;;;;;5051750;28;20209;-50
2023/07/25 07:35:38;;;;;;;13.20;4.85;;;18.80;99.90;;;;;;5051134;28;20167;-50
2023/07/25 07:38:03;;;;;;;10.88;3.78;;;18.70;99.90;;;;;;5051138;28;20256;-50
2023/07/25 07:40:29;;;;;;;11.85;4.53;;;18.90;99.90;;;;;;5051024;28;20167;-47
2023/07/25 07:42:54;;;;;;;15.95;5.22;;;18.90;99.90;;;;;;5051095;28;20171;-49
2023/07/25 07:45:23;;;;;;;7.93;4.05;;;18.70;99.90;;;;;;5049757;28;20236;-49
2023/07/25 07:47:49;;;;;;;8.35;5.40;;;18.80;99.90;;;;;;5051027;28;20205;-49
2023/07/25 07:50:14;;;;;;;15.50;5.68;;;19.00;99.90;;;;;;5051415;28;20181;-47
2023/07/25 07:52:41;;;;;;;8.95;4.20;;;18.90;99.90;;;;;;5050854;28;20217;-49
2023/07/25 07:55:09;;;;;;;10.40;3.88;;;19.00;99.90;;;;;;5050992;28;20163;-49
2023/07/25 07:57:44;;;;;;;7.22;2.55;;;19.00;99.90;;;;;;5050979;28;20174;-50
2023/07/25 08:00:11;;;;;;;11.48;2.65;;;19.20;99.90;;;;;;5050587;28;20166;-49
2023/07/25 08:02:37;;;;;;;9.32;2.88;;;19.30;99.90;;;;;;5050803;28;20174;-50
2023/07/25 08:05:03;;;;;;;5.78;2.30;;;19.30;99.90;;;;;;5050652;28;20178;-49
2023/07/25 08:07:29;;;;;;;8.68;2.40;;;19.30;99.90;;;;;;5051012;28;20171;-47
2023/07/25 08:09:55;;;;;;;5.38;2.10;;;19.30;99.90;;;;;;5050848;28;20201;-48
2023/07/25 08:12:21;;;;;;;5.38;2.53;;;19.40;99.90;;;;;;5050330;28;20249;-50
2023/07/25 08:14:47;;;;;;;8.48;2.72;;;19.40;99.90;;;;;;5051190;28;20171;-49
2023/07/25 08:17:13;;;;;;;5.40;2.10;;;19.40;99.90;;;;;;5054875;28;20167;-49
2023/07/25 08:19:39;;;;;;;7.30;2.40;;;19.40;99.90;;;;;;5054315;28;20673;-48
2023/07/25 08:22:05;;;;;;;6.20;2.20;;;19.40;99.90;;;;;;5054425;28;20175;-49
2023/07/25 08:24:34;;;;;;;7.10;2.67;;;19.50;99.90;;;;;;5054139;28;20178;-49
2023/07/25 08:26:59;;;;;;;8.10;2.35;;;19.60;99.90;;;;;;5054191;28;20183;-47
2023/07/25 08:29:26;;;;;;;5.78;2.55;;;19.70;99.90;;;;;;5054252;28;20245;-49
2023/07/25 08:31:51;;;;;;;8.02;2.38;;;19.80;99.90;;;;;;5054188;28;20162;-50
2023/07/25 08:34:17;;;;;;;5.97;2.20;;;19.70;99.90;;;;;;5054209;28;20634;-49
2023/07/25 08:36:42;;;;;;;6.43;2.00;;;19.60;99.90;;;;;;5053278;28;20173;-49
2023/07/25 08:39:08;;;;;;;7.85;2.58;;;19.80;99.90;;;;;;5054142;28;20249;-49
2023/07/25 08:41:43;;;;;;;6.03;2.35;;;19.90;99.90;;;;;;5053995;28;20166;-47
2023/07/25 08:44:12;;;;;;;6.13;1.98;;;20.10;99.90;;;;;;5053798;28;20166;-47
2023/07/25 08:46:45;;;;;;;9.30;2.88;;;20.30;99.90;;;;;;5054048;28;20223;-47
2023/07/25 08:49:14;;;;;;;5.55;2.28;;;20.40;99.90;;;;;;5050597;28;20616;-48
2023/07/25 08:51:42;;;;;;;5.00;1.95;;;20.30;99.90;;;;;;5052186;28;20163;-46
2023/07/25 08:54:21;;;;;;;5.35;1.80;;;20.40;99.90;;;;;;5052269;28;20175;-44
2023/07/25 08:56:47;;;;;;;5.25;1.83;;;20.40;99.90;;;;;;5052158;28;20721;-50
2023/07/25 08:59:14;;;;;;;6.78;2.28;;;20.20;99.90;;;;;;5052272;28;20258;-47
2023/07/25 09:01:40;;;;;;;5.93;1.63;;;20.10;99.90;;;;;;5051639;28;20182;-48
2023/07/25 09:04:07;;;;;;;3.30;1.92;;;20.30;99.90;;;;;;5051792;28;20170;-49
2023/07/25 09:06:33;;;;;;;6.55;2.35;;;20.40;99.90;;;;;;5051706;28;20205;-47
2023/07/25 09:08:58;;;;;;;5.25;2.15;;;20.50;99.90;;;;;;5051693;28;20171;-45
2023/07/25 09:11:25;;;;;;;5.05;1.80;;;20.30;99.90;;;;;;5051767;28;20763;-50
2023/07/25 09:13:51;;;;;;;11.27;2.22;;;22.00;99.90;;;;;;5052051;28;20214;-51
2023/07/25 09:16:17;;;;;;;6.78;1.95;;;20.10;99.90;;;;;;5051737;28;20503;-49
2023/07/25 09:18:42;;;;;;;6.53;1.83;;;20.20;99.90;;;;;;5052274;28;20178;-51
2023/07/25 09:21:08;;;;;;;5.22;1.83;;;20.30;99.90;;;;;;5051782;28;20527;-50
2023/07/25 09:23:34;;;;;;;7.65;1.85;;;20.30;99.90;;;;;;5051406;28;20168;-52
2023/07/25 09:26:10;;;;;;;5.60;1.90;;;20.20;99.90;;;;;;5051555;28;20186;-51
2023/07/25 09:28:46;;;;;;;3.67;2.30;;;20.10;99.90;;;;;;5051545;28;20529;-50
2023/07/25 09:31:12;;;;;;;4.65;2.00;;;20.20;99.90;;;;;;5051959;28;20166;-52
2023/07/25 09:33:38;;;;;;;6.78;2.20;;;20.30;99.90;;;;;;5051327;28;20269;-50
2023/07/25 09:36:05;;;;;;;7.53;2.42;;;20.50;99.90;;;;;;5051547;28;20158;-51
2023/07/25 09:38:31;;;;;;;6.72;2.00;;;20.50;99.90;;;;;;5051265;28;20171;-50
2023/07/25 09:40:56;;;;;;;4.95;2.10;;;20.40;99.90;;;;;;5051264;28;20531;-51
2023/07/25 09:43:24;;;;;;;4.68;1.85;;;20.50;99.90;;;;;;5050564;28;20174;-51
2023/07/25 09:45:50;;;;;;;5.32;1.90;;;20.50;99.90;;;;;;5051034;28;20166;-51
2023/07/25 09:48:16;;;;;;;8.70;2.42;;;20.50;99.90;;;;;;5051063;28;20177;-50
2023/07/25 09:50:45;;;;;;;8.10;1.80;;;20.50;99.90;;;;;;5051173;28;20529;-51
2023/07/25 09:53:17;;;;;;;4.93;1.70;;;20.50;99.90;;;;;;5051094;28;20813;-51
2023/07/25 09:55:44;;;;;;;4.85;2.00;;;20.60;99.90;;;;;;5051306;28;20193;-50
2023/07/25 09:58:12;;;;;;;6.63;2.03;;;20.60;99.90;;;;;;5050247;28;20231;-50
2023/07/25 10:00:39;;;;;;;6.70;2.15;;;20.60;99.90;;;;;;5050828;28;20178;-51
2023/07/25 10:03:09;;;;;;;7.00;2.42;;;20.60;99.90;;;;;;5050857;28;20733;-51
2023/07/25 10:05:35;;;;;;;5.88;2.05;;;20.70;99.90;;;;;;5050588;28;20170;-51
2023/07/25 10:08:00;;;;;;;7.57;1.70;;;20.50;99.90;;;;;;5050913;28;20190;-50
2023/07/25 10:10:26;;;;;;;8.15;1.98;;;20.70;99.90;;;;;;5050484;28;20233;-51
2023/07/25 10:12:53;;;;;;;6.05;1.90;;;20.70;99.90;;;;;;5050020;28;20268;-51
2023/07/25 10:15:19;;;;;;;4.53;2.10;;;20.90;99.90;;;;;;5050296;28;20182;-50
2023/07/25 10:17:46;;;;;;;3.92;2.03;;;20.90;99.90;;;;;;5050411;28;20167;-49
2023/07/25 10:20:22;;;;;;;4.53;1.80;;;21.00;99.90;;;;;;5051315;28;20220;-51
2023/07/25 10:22:47;;;;;;;3.30;1.45;;;21.30;99.90;;;;;;5050659;28;20239;-51
2023/07/25 10:25:29;;;;;;;6.60;1.95;;;21.20;99.90;;;;;;5050740;28;20167;-49
2023/07/25 10:28:03;;;;;;;3.67;1.40;;;21.30;99.90;;;;;;5048917;28;20630;-48
2023/07/25 10:30:31;;;;;;;5.88;1.90;;;21.50;99.90;;;;;;5050078;28;20221;-50
2023/07/25 10:33:06;;;;;;;7.63;1.98;;;21.60;99.90;;;;;;5050031;28;20602;-48
2023/07/25 10:35:49;;;;;;;5.90;1.98;;;21.80;99.90;;;;;;5049844;28;20582;-51
2023/07/25 10:38:40;;;;;;;4.95;1.63;;;21.90;99.90;;;;;;5049421;28;20278;-47
2023/07/25 10:41:09;;;;;;;5.47;1.60;;;22.10;99.90;;;;;;5049724;28;20233;-51
2023/07/25 10:43:52;;;;;;;3.65;1.77;;;22.40;99.90;;;;;;5050124;28;20563;-51
2023/07/25 10:46:22;;;;;;;3.90;1.67;;;22.40;99.90;;;;;;5049770;28;20186;-51
2023/07/25 10:48:51;;;;;;;5.20;1.80;;;22.60;99.90;;;;;;5049882;28;20661;-51
2023/07/25 10:51:19;;;;;;;4.80;1.55;;;22.00;99.90;;;;;;5049487;28;20232;-51
2023/07/25 10:54:08;;;;;;;5.90;1.95;;;22.10;99.90;;;;;;5050359;28;20749;-51
2023/07/25 10:56:34;;;;;;;3.20;1.45;;;22.40;99.90;;;;;;5049778;28;20171;-51
2023/07/25 10:59:05;;;;;;;3.55;1.60;;;22.60;99.90;;;;;;5049914;28;20510;-50
2023/07/25 11:01:39;;;;;;;6.28;1.90;;;22.60;99.90;;;;;;5050196;28;20175;-50
2023/07/25 11:04:26;;;;;;;5.40;1.90;;;22.30;99.90;;;;;;5049540;28;20178;-51
2023/07/25 11:06:53;;;;;;;3.97;1.85;;;22.50;99.90;;;;;;5049038;28;20661;-51
2023/07/25 11:09:20;;;;;;;6.13;1.98;;;22.90;99.90;;;;;;5049761;28;20182;-50
2023/07/25 11:11:49;;;;;;;3.78;1.55;;;22.80;99.90;;;;;;5049671;28;20221;-50
2023/07/25 11:14:17;;;;;;;5.40;2.13;;;22.80;99.90;;;;;;5050403;28;20705;-53
2023/07/25 11:16:44;;;;;;;2.65;1.80;;;22.50;99.90;;;;;;5050074;28;20514;-49
2023/07/25 11:19:10;;;;;;;4.63;1.80;;;22.40;99.90;;;;;;5049671;28;20244;-52
2023/07/25 11:21:39;;;;;;;8.18;2.25;;;22.70;99.90;;;;;;5049693;28;20201;-52
2023/07/25 11:24:07;;;;;;;4.03;1.80;;;23.30;99.90;;;;;;5049743;28;20567;-50
2023/07/25 11:26:32;;;;;;;5.85;1.80;;;23.10;99.90;;;;;;5049910;28;20185;-52
2023/07/25 11:29:06;;;;;;;5.32;1.90;;;22.60;99.90;;;;;;5049469;28;20174;-52
2023/07/25 11:31:32;;;;;;;4.18;1.60;;;22.80;99.90;;;;;;5049450;28;20170;-52
2023/07/25 11:34:06;;;;;;;6.93;1.75;;;23.20;99.10;;;;;;5049455;28;20209;-50
2023/07/25 11:36:35;;;;;;;4.63;1.67;;;23.20;99.90;;;;;;5049600;28;20547;-52
2023/07/25 11:39:02;;;;;;;5.68;1.92;;;22.80;99.90;;;;;;5049508;28;20249;-53
2023/07/25 11:41:28;;;;;;;4.82;2.25;;;22.40;99.90;;;;;;5048609;28;20630;-52
2023/07/25 11:43:54;;;;;;;4.10;1.63;;;22.10;99.90;;;;;;5048376;28;20261;-52
2023/07/25 11:46:19;;;;;;;3.78;1.80;;;21.80;99.90;;;;;;5048668;28;20638;-52
2023/07/25 11:48:45;;;;;;;5.50;1.70;;;21.50;99.90;;;;;;5049452;28;20232;-49
2023/07/25 11:51:10;;;;;;;2.72;1.73;;;21.30;99.90;;;;;;5053874;28;20537;-49
2023/07/25 11:53:36;;;;;;;4.38;1.45;;;21.30;99.90;;;;;;5053560;28;20213;-52
2023/07/25 11:56:02;;;;;;;3.85;2.08;;;21.30;99.90;;;;;;5053443;28;20258;-50
2023/07/25 11:58:28;;;;;;;6.38;1.85;;;21.50;99.90;;;;;;5053155;28;20181;-51
2023/07/25 12:00:54;;;;;;;3.78;1.58;;;21.60;99.90;;;;;;5053487;28;20566;-53
2023/07/25 12:03:24;;;;;;;4.35;1.90;;;21.80;99.90;;;;;;5053098;28;20178;-53
2023/07/25 12:05:57;;;;;;;5.50;1.80;;;21.90;99.90;;;;;;5052990;28;20174;-51
2023/07/25 12:08:37;;;;;;;3.63;1.50;;;21.60;99.90;;;;;;5051219;28;20642;-52
2023/07/25 12:11:04;;;;;;;2.92;1.60;;;21.80;99.90;;;;;;5052699;28;20217;-51
2023/07/25 12:13:30;;;;;;;6.18;1.85;;;21.80;99.90;;;;;;5053059;28;20570;-49
2023/07/25 12:15:57;;;;;;;4.47;2.30;;;21.70;99.90;;;;;;5053189;28;20170;-48
2023/07/25 12:18:30;;;;;;;4.10;1.83;;;21.30;99.90;;;;;;5053222;28;20181;-48
2023/07/25 12:20:58;;;;;;;4.57;1.70;;;21.20;99.90;;;;;;5052807;28;20206;-50
2023/07/25 12:23:38;;;;;;;5.10;2.20;;;21.00;99.90;;;;;;5053071;28;20183;-50
2023/07/25 12:26:05;;;;;;;6.40;1.77;;;20.90;99.90;;;;;;5052809;28;20173;-51
2023/07/25 12:28:44;;;;;;;7.50;1.90;;;20.60;99.90;;;;;;5052530;28;20173;-49
2023/07/25 12:31:11;;;;;;;6.45;2.00;;;20.40;99.90;;;;;;5052798;28;20638;-50
2023/07/25 12:33:38;;;;;;;3.92;1.77;;;20.30;99.90;;;;;;5052474;28;20210;-49
2023/07/25 12:36:04;;;;;;;4.93;1.70;;;20.40;99.90;;;;;;5051284;28;20612;-51
2023/07/25 12:38:30;;;;;;;3.58;1.60;;;20.10;99.90;;;;;;5052537;28;20178;-52
2023/07/25 12:40:56;;;;;;;5.13;1.77;;;20.00;99.90;;;;;;5052551;28;20569;-49